sensor_id;sensor_type;location;lat;lon;timestamp;P1;durP1;ratioP1;P2;durP2;ratioP2
29938;SDS011;16799;50.844;5.304;2023-03-03T00:00:36;42.60;;;20.93;;
29938;SDS011;16799;50.844;5.304;2023-03-03T00:03:03;47.77;;;21.30;;
29938;SDS011;16799;50.844;5.304;2023-03-03T00:05:32;45.03;;;22.63;;
29938;SDS011;16799;50.844;5.304;2023-03-03T00:07:58;34.00;;;20.77;;
29938;SDS011;16799;50.844;5.304;2023-03-03T00:10:24;49.47;;;22.90;;
29938;SDS011;16799;50.844;5.304;2023-03-03T00:12:49;51.70;;;22.70;;
29938;SDS011;16799;50.844;5.304;2023-03-03T00:15:19;41.47;;;22.27;;
29938;SDS011;16799;50.844;5.304;2023-03-03T00:17:46;41.13;;;23.13;;
29938;SDS011;16799;50.844;5.304;2023-03-03T00:20:32;39.83;;;22.37;;
29938;SDS011;16799;50.844;5.304;2023-03-03T00:25:45;38.10;;;22.20;;
29938;SDS011;16799;50.844;5.304;2023-03-03T00:30:46;51.50;;;24.50;;
29938;SDS011;16799;50.844;5.304;2023-03-03T00:33:28;47.77;;;23.10;;
29938;SDS011;16799;50.844;5.304;2023-03-03T00:36:44;45.47;;;24.80;;
29938;SDS011;16799;50.844;5.304;2023-03-03T00:38:56;46.20;;;23.40;;
29938;SDS011;16799;50.844;5.304;2023-03-03T00:41:39;37.00;;;22.37;;
29938;SDS011;16799;50.844;5.304;2023-03-03T00:46:50;50.13;;;23.47;;
29938;SDS011;16799;50.844;5.304;2023-03-03T00:49:21;47.93;;;24.27;;
29938;SDS011;16799;50.844;5.304;2023-03-03T00:51:50;49.37;;;23.70;;
29938;SDS011;16799;50.844;5.304;2023-03-03T00:54:16;48.87;;;27.13;;
29938;SDS011;16799;50.844;5.304;2023-03-03T00:56:41;57.17;;;22.80;;
29938;SDS011;16799;50.844;5.304;2023-03-03T00:59:07;42.90;;;23.67;;
29938;SDS011;16799;50.844;5.304;2023-03-03T01:01:33;52.80;;;25.27;;
29938;SDS011;16799;50.844;5.304;2023-03-03T01:03:58;46.57;;;23.73;;
29938;SDS011;16799;50.844;5.304;2023-03-03T01:06:24;57.70;;;24.73;;
29938;SDS011;16799;50.844;5.304;2023-03-03T01:08:49;48.80;;;24.80;;
29938;SDS011;16799;50.844;5.304;2023-03-03T01:11:16;50.97;;;25.07;;
29938;SDS011;16799;50.844;5.304;2023-03-03T01:13:48;49.17;;;25.53;;
29938;SDS011;16799;50.844;5.304;2023-03-03T01:16:15;57.37;;;25.33;;
29938;SDS011;16799;50.844;5.304;2023-03-03T01:18:41;62.97;;;26.23;;
29938;SDS011;16799;50.844;5.304;2023-03-03T01:21:07;53.03;;;25.73;;
29938;SDS011;16799;50.844;5.304;2023-03-03T01:23:34;53.80;;;24.53;;
29938;SDS011;16799;50.844;5.304;2023-03-03T01:26:00;58.07;;;26.90;;
29938;SDS011;16799;50.844;5.304;2023-03-03T01:28:26;52.10;;;25.47;;
29938;SDS011;16799;50.844;5.304;2023-03-03T01:30:51;54.30;;;25.23;;
29938;SDS011;16799;50.844;5.304;2023-03-03T01:33:17;41.10;;;22.90;;
29938;SDS011;16799;50.844;5.304;2023-03-03T01:35:46;54.63;;;25.97;;
29938;SDS011;16799;50.844;5.304;2023-03-03T01:38:12;64.30;;;27.63;;
29938;SDS011;16799;50.844;5.304;2023-03-03T01:40:39;61.13;;;28.73;;
29938;SDS011;16799;50.844;5.304;2023-03-03T01:43:05;55.00;;;26.07;;
29938;SDS011;16799;50.844;5.304;2023-03-03T01:45:42;52.77;;;27.43;;
29938;SDS011;16799;50.844;5.304;2023-03-03T01:48:30;65.50;;;26.57;;
29938;SDS011;16799;50.844;5.304;2023-03-03T01:51:03;71.83;;;29.60;;
29938;SDS011;16799;50.844;5.304;2023-03-03T01:53:38;79.27;;;31.83;;
29938;SDS011;16799;50.844;5.304;2023-03-03T01:56:08;95.87;;;34.60;;
29938;SDS011;16799;50.844;5.304;2023-03-03T01:58:36;87.67;;;37.70;;
29938;SDS011;16799;50.844;5.304;2023-03-03T02:01:11;84.07;;;39.80;;
29938;SDS011;16799;50.844;5.304;2023-03-03T02:03:40;97.63;;;42.00;;
29938;SDS011;16799;50.844;5.304;2023-03-03T02:06:09;103.33;;;38.70;;
29938;SDS011;16799;50.844;5.304;2023-03-03T02:08:41;87.67;;;35.63;;
29938;SDS011;16799;50.844;5.304;2023-03-03T02:11:18;81.33;;;34.23;;
29938;SDS011;16799;50.844;5.304;2023-03-03T02:13:45;72.13;;;32.53;;
29938;SDS011;16799;50.844;5.304;2023-03-03T02:16:11;97.60;;;37.30;;
29938;SDS011;16799;50.844;5.304;2023-03-03T02:18:37;89.90;;;35.87;;
29938;SDS011;16799;50.844;5.304;2023-03-03T02:21:08;87.27;;;35.90;;
29938;SDS011;16799;50.844;5.304;2023-03-03T02:26:12;90.57;;;40.37;;
29938;SDS011;16799;50.844;5.304;2023-03-03T02:28:42;93.80;;;36.63;;
29938;SDS011;16799;50.844;5.304;2023-03-03T02:31:12;92.10;;;38.00;;
29938;SDS011;16799;50.844;5.304;2023-03-03T02:33:44;114.37;;;44.57;;
29938;SDS011;16799;50.844;5.304;2023-03-03T02:36:16;104.73;;;37.47;;
29938;SDS011;16799;50.844;5.304;2023-03-03T02:38:58;96.53;;;37.13;;
29938;SDS011;16799;50.844;5.304;2023-03-03T02:41:34;100.37;;;39.80;;
29938;SDS011;16799;50.844;5.304;2023-03-03T02:46:42;122.90;;;43.47;;
29938;SDS011;16799;50.844;5.304;2023-03-03T02:49:10;97.37;;;39.10;;
29938;SDS011;16799;50.844;5.304;2023-03-03T02:51:38;114.07;;;42.20;;
29938;SDS011;16799;50.844;5.304;2023-03-03T02:54:04;103.07;;;41.33;;
29938;SDS011;16799;50.844;5.304;2023-03-03T02:56:31;109.37;;;39.93;;
29938;SDS011;16799;50.844;5.304;2023-03-03T02:58:57;125.93;;;42.93;;
29938;SDS011;16799;50.844;5.304;2023-03-03T03:01:23;112.80;;;39.50;;
29938;SDS011;16799;50.844;5.304;2023-03-03T03:03:48;101.60;;;39.07;;
29938;SDS011;16799;50.844;5.304;2023-03-03T03:06:14;105.90;;;39.57;;
29938;SDS011;16799;50.844;5.304;2023-03-03T03:08:40;98.67;;;38.50;;
29938;SDS011;16799;50.844;5.304;2023-03-03T03:11:05;94.37;;;36.17;;
29938;SDS011;16799;50.844;5.304;2023-03-03T03:13:31;115.67;;;42.20;;
29938;SDS011;16799;50.844;5.304;2023-03-03T03:15:58;107.33;;;37.87;;
29938;SDS011;16799;50.844;5.304;2023-03-03T03:18:24;102.47;;;41.43;;
29938;SDS011;16799;50.844;5.304;2023-03-03T03:20:50;99.20;;;40.03;;
29938;SDS011;16799;50.844;5.304;2023-03-03T03:23:16;103.50;;;38.40;;
29938;SDS011;16799;50.844;5.304;2023-03-03T03:25:42;113.83;;;40.63;;
29938;SDS011;16799;50.844;5.304;2023-03-03T03:28:11;119.33;;;43.50;;
29938;SDS011;16799;50.844;5.304;2023-03-03T03:30:39;94.00;;;39.13;;
29938;SDS011;16799;50.844;5.304;2023-03-03T03:33:05;99.47;;;39.50;;
29938;SDS011;16799;50.844;5.304;2023-03-03T03:35:32;89.63;;;36.77;;
29938;SDS011;16799;50.844;5.304;2023-03-03T03:37:59;90.40;;;36.57;;
29938;SDS011;16799;50.844;5.304;2023-03-03T03:40:25;120.10;;;38.57;;
29938;SDS011;16799;50.844;5.304;2023-03-03T03:42:51;119.30;;;39.67;;
29938;SDS011;16799;50.844;5.304;2023-03-03T03:45:18;104.20;;;38.27;;
29938;SDS011;16799;50.844;5.304;2023-03-03T03:47:44;100.63;;;34.63;;
29938;SDS011;16799;50.844;5.304;2023-03-03T03:50:10;100.93;;;37.20;;
29938;SDS011;16799;50.844;5.304;2023-03-03T03:52:36;127.60;;;38.77;;
29938;SDS011;16799;50.844;5.304;2023-03-03T03:55:02;102.03;;;37.80;;
29938;SDS011;16799;50.844;5.304;2023-03-03T03:57:28;103.00;;;38.63;;
29938;SDS011;16799;50.844;5.304;2023-03-03T03:59:53;108.03;;;41.13;;
29938;SDS011;16799;50.844;5.304;2023-03-03T04:02:19;103.30;;;37.47;;
29938;SDS011;16799;50.844;5.304;2023-03-03T04:04:45;113.97;;;37.87;;
29938;SDS011;16799;50.844;5.304;2023-03-03T04:07:10;84.03;;;34.67;;
29938;SDS011;16799;50.844;5.304;2023-03-03T04:09:36;96.03;;;39.00;;
29938;SDS011;16799;50.844;5.304;2023-03-03T04:12:02;97.87;;;36.83;;
29938;SDS011;16799;50.844;5.304;2023-03-03T04:14:28;123.00;;;42.47;;
29938;SDS011;16799;50.844;5.304;2023-03-03T04:16:54;108.93;;;39.77;;
29938;SDS011;16799;50.844;5.304;2023-03-03T04:19:20;109.53;;;37.70;;
29938;SDS011;16799;50.844;5.304;2023-03-03T04:21:45;102.03;;;40.50;;
29938;SDS011;16799;50.844;5.304;2023-03-03T04:24:11;117.43;;;41.30;;
29938;SDS011;16799;50.844;5.304;2023-03-03T04:26:37;101.17;;;38.60;;
29938;SDS011;16799;50.844;5.304;2023-03-03T04:29:03;114.30;;;41.60;;
29938;SDS011;16799;50.844;5.304;2023-03-03T04:31:28;126.50;;;39.97;;
29938;SDS011;16799;50.844;5.304;2023-03-03T04:33:54;105.40;;;37.77;;
29938;SDS011;16799;50.844;5.304;2023-03-03T04:36:20;117.90;;;41.20;;
29938;SDS011;16799;50.844;5.304;2023-03-03T04:38:46;97.63;;;42.80;;
29938;SDS011;16799;50.844;5.304;2023-03-03T04:41:12;113.47;;;40.73;;
29938;SDS011;16799;50.844;5.304;2023-03-03T04:43:38;107.70;;;38.40;;
29938;SDS011;16799;50.844;5.304;2023-03-03T04:46:04;123.30;;;36.97;;
29938;SDS011;16799;50.844;5.304;2023-03-03T04:48:30;96.50;;;34.70;;
29938;SDS011;16799;50.844;5.304;2023-03-03T04:50:55;103.57;;;34.87;;
29938;SDS011;16799;50.844;5.304;2023-03-03T04:53:21;89.83;;;33.73;;
29938;SDS011;16799;50.844;5.304;2023-03-03T04:55:51;90.03;;;36.40;;
29938;SDS011;16799;50.844;5.304;2023-03-03T04:58:17;96.03;;;35.03;;
29938;SDS011;16799;50.844;5.304;2023-03-03T05:00:44;81.30;;;30.70;;
29938;SDS011;16799;50.844;5.304;2023-03-03T05:03:11;80.83;;;30.00;;
29938;SDS011;16799;50.844;5.304;2023-03-03T05:05:37;84.50;;;32.77;;
29938;SDS011;16799;50.844;5.304;2023-03-03T05:08:04;72.30;;;31.10;;
29938;SDS011;16799;50.844;5.304;2023-03-03T05:10:30;74.00;;;28.77;;
29938;SDS011;16799;50.844;5.304;2023-03-03T05:12:55;69.43;;;28.93;;
29938;SDS011;16799;50.844;5.304;2023-03-03T05:15:21;78.23;;;31.73;;
29938;SDS011;16799;50.844;5.304;2023-03-03T05:17:47;73.07;;;28.10;;
29938;SDS011;16799;50.844;5.304;2023-03-03T05:20:13;67.57;;;28.80;;
29938;SDS011;16799;50.844;5.304;2023-03-03T05:22:38;76.83;;;29.07;;
29938;SDS011;16799;50.844;5.304;2023-03-03T05:25:04;78.53;;;30.80;;
29938;SDS011;16799;50.844;5.304;2023-03-03T05:27:30;66.10;;;28.67;;
29938;SDS011;16799;50.844;5.304;2023-03-03T05:29:56;73.87;;;27.80;;
29938;SDS011;16799;50.844;5.304;2023-03-03T05:32:21;73.83;;;31.37;;
29938;SDS011;16799;50.844;5.304;2023-03-03T05:34:47;81.10;;;27.40;;
29938;SDS011;16799;50.844;5.304;2023-03-03T05:37:13;82.03;;;32.07;;
29938;SDS011;16799;50.844;5.304;2023-03-03T05:39:39;68.67;;;27.50;;
29938;SDS011;16799;50.844;5.304;2023-03-03T05:42:05;74.53;;;29.37;;
29938;SDS011;16799;50.844;5.304;2023-03-03T05:44:30;68.87;;;25.40;;
29938;SDS011;16799;50.844;5.304;2023-03-03T05:46:56;69.57;;;26.53;;
29938;SDS011;16799;50.844;5.304;2023-03-03T05:49:23;81.30;;;27.53;;
29938;SDS011;16799;50.844;5.304;2023-03-03T05:51:50;71.13;;;28.07;;
29938;SDS011;16799;50.844;5.304;2023-03-03T05:54:15;73.97;;;28.90;;
29938;SDS011;16799;50.844;5.304;2023-03-03T05:56:41;61.87;;;25.47;;
29938;SDS011;16799;50.844;5.304;2023-03-03T05:59:07;60.30;;;27.47;;
29938;SDS011;16799;50.844;5.304;2023-03-03T06:01:32;59.13;;;26.80;;
29938;SDS011;16799;50.844;5.304;2023-03-03T06:03:58;64.03;;;25.53;;
29938;SDS011;16799;50.844;5.304;2023-03-03T06:06:24;65.53;;;25.90;;
29938;SDS011;16799;50.844;5.304;2023-03-03T06:08:49;53.73;;;23.60;;
29938;SDS011;16799;50.844;5.304;2023-03-03T06:11:17;68.17;;;26.30;;
29938;SDS011;16799;50.844;5.304;2023-03-03T06:13:43;73.70;;;27.67;;
29938;SDS011;16799;50.844;5.304;2023-03-03T06:16:09;65.60;;;26.20;;
29938;SDS011;16799;50.844;5.304;2023-03-03T06:18:35;71.73;;;28.30;;
29938;SDS011;16799;50.844;5.304;2023-03-03T06:21:00;82.13;;;26.63;;
29938;SDS011;16799;50.844;5.304;2023-03-03T06:23:26;76.23;;;28.10;;
29938;SDS011;16799;50.844;5.304;2023-03-03T06:25:52;67.50;;;26.23;;
29938;SDS011;16799;50.844;5.304;2023-03-03T06:28:18;90.23;;;28.80;;
29938;SDS011;16799;50.844;5.304;2023-03-03T06:30:43;70.50;;;26.50;;
29938;SDS011;16799;50.844;5.304;2023-03-03T06:33:09;77.43;;;28.30;;
29938;SDS011;16799;50.844;5.304;2023-03-03T06:35:35;77.87;;;23.87;;
29938;SDS011;16799;50.844;5.304;2023-03-03T06:38:01;87.97;;;27.90;;
29938;SDS011;16799;50.844;5.304;2023-03-03T06:40:26;79.40;;;26.70;;
29938;SDS011;16799;50.844;5.304;2023-03-03T06:42:52;66.93;;;24.30;;
29938;SDS011;16799;50.844;5.304;2023-03-03T06:45:18;87.70;;;25.33;;
29938;SDS011;16799;50.844;5.304;2023-03-03T06:47:43;65.47;;;25.90;;
29938;SDS011;16799;50.844;5.304;2023-03-03T06:50:09;70.13;;;24.60;;
29938;SDS011;16799;50.844;5.304;2023-03-03T06:52:36;75.67;;;22.93;;
29938;SDS011;16799;50.844;5.304;2023-03-03T06:55:09;85.07;;;28.57;;
29938;SDS011;16799;50.844;5.304;2023-03-03T06:57:45;66.53;;;24.90;;
29938;SDS011;16799;50.844;5.304;2023-03-03T07:00:44;73.10;;;25.53;;
29938;SDS011;16799;50.844;5.304;2023-03-03T07:03:20;72.07;;;27.90;;
29938;SDS011;16799;50.844;5.304;2023-03-03T07:05:48;74.43;;;26.30;;
29938;SDS011;16799;50.844;5.304;2023-03-03T07:08:17;65.50;;;25.23;;
29938;SDS011;16799;50.844;5.304;2023-03-03T07:10:44;82.90;;;24.57;;
29938;SDS011;16799;50.844;5.304;2023-03-03T07:13:32;63.70;;;22.60;;
29938;SDS011;16799;50.844;5.304;2023-03-03T07:15:58;58.90;;;23.80;;
29938;SDS011;16799;50.844;5.304;2023-03-03T07:18:34;63.70;;;25.23;;
29938;SDS011;16799;50.844;5.304;2023-03-03T07:21:16;68.70;;;22.43;;
29938;SDS011;16799;50.844;5.304;2023-03-03T07:23:45;73.87;;;21.67;;
29938;SDS011;16799;50.844;5.304;2023-03-03T07:26:14;72.10;;;25.70;;
29938;SDS011;16799;50.844;5.304;2023-03-03T07:28:57;70.47;;;23.60;;
29938;SDS011;16799;50.844;5.304;2023-03-03T07:34:21;78.30;;;25.23;;
29938;SDS011;16799;50.844;5.304;2023-03-03T07:36:49;67.97;;;28.60;;
29938;SDS011;16799;50.844;5.304;2023-03-03T07:44:34;77.33;;;23.63;;
29938;SDS011;16799;50.844;5.304;2023-03-03T07:50:00;73.23;;;24.30;;
29938;SDS011;16799;50.844;5.304;2023-03-03T07:52:40;65.77;;;28.63;;
29938;SDS011;16799;50.844;5.304;2023-03-03T07:57:47;84.87;;;24.13;;
29938;SDS011;16799;50.844;5.304;2023-03-03T08:03:02;86.03;;;26.20;;
29938;SDS011;16799;50.844;5.304;2023-03-03T08:10:51;77.83;;;24.87;;
29938;SDS011;16799;50.844;5.304;2023-03-03T08:18:34;74.50;;;21.53;;
29938;SDS011;16799;50.844;5.304;2023-03-03T08:21:05;84.47;;;22.93;;
29938;SDS011;16799;50.844;5.304;2023-03-03T08:23:37;84.03;;;24.50;;
29938;SDS011;16799;50.844;5.304;2023-03-03T08:26:03;83.87;;;24.23;;
29938;SDS011;16799;50.844;5.304;2023-03-03T08:28:29;90.17;;;25.93;;
29938;SDS011;16799;50.844;5.304;2023-03-03T08:30:54;66.53;;;21.57;;
29938;SDS011;16799;50.844;5.304;2023-03-03T08:33:20;67.03;;;23.60;;
29938;SDS011;16799;50.844;5.304;2023-03-03T08:35:46;80.20;;;26.63;;
29938;SDS011;16799;50.844;5.304;2023-03-03T08:38:13;72.27;;;26.03;;
29938;SDS011;16799;50.844;5.304;2023-03-03T08:40:41;68.07;;;24.53;;
29938;SDS011;16799;50.844;5.304;2023-03-03T08:43:07;83.70;;;23.70;;
29938;SDS011;16799;50.844;5.304;2023-03-03T08:45:35;62.17;;;22.50;;
29938;SDS011;16799;50.844;5.304;2023-03-03T08:48:01;68.03;;;26.27;;
29938;SDS011;16799;50.844;5.304;2023-03-03T08:50:27;71.43;;;24.70;;
29938;SDS011;16799;50.844;5.304;2023-03-03T08:52:54;74.80;;;24.97;;
29938;SDS011;16799;50.844;5.304;2023-03-03T08:55:20;66.77;;;25.00;;
29938;SDS011;16799;50.844;5.304;2023-03-03T08:57:46;67.50;;;27.50;;
29938;SDS011;16799;50.844;5.304;2023-03-03T09:00:13;76.23;;;26.27;;
29938;SDS011;16799;50.844;5.304;2023-03-03T09:02:41;97.93;;;27.37;;
29938;SDS011;16799;50.844;5.304;2023-03-03T09:05:07;70.87;;;26.43;;
29938;SDS011;16799;50.844;5.304;2023-03-03T09:07:33;83.37;;;26.50;;
29938;SDS011;16799;50.844;5.304;2023-03-03T09:09:59;82.97;;;26.97;;
29938;SDS011;16799;50.844;5.304;2023-03-03T09:12:30;55.10;;;23.87;;
29938;SDS011;16799;50.844;5.304;2023-03-03T09:15:05;79.63;;;26.90;;
29938;SDS011;16799;50.844;5.304;2023-03-03T09:17:53;68.43;;;24.60;;
29938;SDS011;16799;50.844;5.304;2023-03-03T09:20:35;70.03;;;24.33;;
29938;SDS011;16799;50.844;5.304;2023-03-03T09:28:47;68.63;;;26.03;;
29938;SDS011;16799;50.844;5.304;2023-03-03T09:31:20;63.60;;;25.30;;
29938;SDS011;16799;50.844;5.304;2023-03-03T09:33:49;62.13;;;21.80;;
29938;SDS011;16799;50.844;5.304;2023-03-03T09:38:44;58.87;;;22.90;;
29938;SDS011;16799;50.844;5.304;2023-03-03T09:41:15;58.77;;;24.23;;
29938;SDS011;16799;50.844;5.304;2023-03-03T09:50:24;47.40;;;20.83;;
29938;SDS011;16799;50.844;5.304;2023-03-03T09:52:42;62.57;;;21.83;;
29938;SDS011;16799;50.844;5.304;2023-03-03T09:55:37;70.63;;;24.20;;
29938;SDS011;16799;50.844;5.304;2023-03-03T10:01:22;65.13;;;24.30;;
29938;SDS011;16799;50.844;5.304;2023-03-03T10:07:25;46.07;;;19.57;;
29938;SDS011;16799;50.844;5.304;2023-03-03T10:12:27;52.07;;;20.87;;
29938;SDS011;16799;50.844;5.304;2023-03-03T10:18:05;58.30;;;21.50;;
29938;SDS011;16799;50.844;5.304;2023-03-03T10:31:36;37.77;;;18.77;;
29938;SDS011;16799;50.844;5.304;2023-03-03T10:39:36;55.40;;;21.27;;
29938;SDS011;16799;50.844;5.304;2023-03-03T10:44:56;52.13;;;23.87;;
29938;SDS011;16799;50.844;5.304;2023-03-03T10:50:43;44.53;;;20.40;;
29938;SDS011;16799;50.844;5.304;2023-03-03T10:53:21;47.47;;;19.67;;
29938;SDS011;16799;50.844;5.304;2023-03-03T11:07:23;50.30;;;20.90;;
29938;SDS011;16799;50.844;5.304;2023-03-03T11:20:38;42.93;;;19.43;;
29938;SDS011;16799;50.844;5.304;2023-03-03T11:23:18;44.53;;;19.20;;
29938;SDS011;16799;50.844;5.304;2023-03-03T11:25:50;42.90;;;18.07;;
29938;SDS011;16799;50.844;5.304;2023-03-03T11:28:47;45.07;;;19.90;;
29938;SDS011;16799;50.844;5.304;2023-03-03T11:36:26;44.90;;;23.33;;
29938;SDS011;16799;50.844;5.304;2023-03-03T11:39:06;43.90;;;19.87;;
29938;SDS011;16799;50.844;5.304;2023-03-03T11:41:41;44.33;;;19.57;;
29938;SDS011;16799;50.844;5.304;2023-03-03T11:44:32;42.23;;;21.90;;
29938;SDS011;16799;50.844;5.304;2023-03-03T11:47:28;57.03;;;20.77;;
29938;SDS011;16799;50.844;5.304;2023-03-03T11:53:03;40.27;;;19.03;;
29938;SDS011;16799;50.844;5.304;2023-03-03T11:56:26;35.60;;;17.60;;
29938;SDS011;16799;50.844;5.304;2023-03-03T12:01:45;42.50;;;17.93;;
29938;SDS011;16799;50.844;5.304;2023-03-03T12:04:25;44.57;;;18.40;;
29938;SDS011;16799;50.844;5.304;2023-03-03T12:12:24;40.47;;;19.17;;
29938;SDS011;16799;50.844;5.304;2023-03-03T12:20:08;40.60;;;17.30;;
29938;SDS011;16799;50.844;5.304;2023-03-03T12:28:39;35.00;;;17.07;;
29938;SDS011;16799;50.844;5.304;2023-03-03T12:34:17;38.60;;;18.40;;
29938;SDS011;16799;50.844;5.304;2023-03-03T12:47:59;29.73;;;15.50;;
29938;SDS011;16799;50.844;5.304;2023-03-03T12:58:34;31.60;;;16.70;;
29938;SDS011;16799;50.844;5.304;2023-03-03T13:03:56;39.03;;;17.80;;
29938;SDS011;16799;50.844;5.304;2023-03-03T13:06:41;34.57;;;18.07;;
29938;SDS011;16799;50.844;5.304;2023-03-03T13:12:06;29.63;;;15.40;;
29938;SDS011;16799;50.844;5.304;2023-03-03T13:15:34;35.07;;;15.27;;
29938;SDS011;16799;50.844;5.304;2023-03-03T13:17:37;42.13;;;16.77;;
29938;SDS011;16799;50.844;5.304;2023-03-03T13:23:17;33.90;;;16.80;;
29938;SDS011;16799;50.844;5.304;2023-03-03T13:25:49;29.30;;;15.47;;
29938;SDS011;16799;50.844;5.304;2023-03-03T13:28:41;34.43;;;17.47;;
29938;SDS011;16799;50.844;5.304;2023-03-03T13:31:16;36.00;;;17.10;;
29938;SDS011;16799;50.844;5.304;2023-03-03T13:33:49;33.70;;;16.20;;
29938;SDS011;16799;50.844;5.304;2023-03-03T13:36:29;34.47;;;17.40;;
29938;SDS011;16799;50.844;5.304;2023-03-03T13:39:02;29.63;;;14.90;;
29938;SDS011;16799;50.844;5.304;2023-03-03T13:44:29;28.90;;;14.37;;
29938;SDS011;16799;50.844;5.304;2023-03-03T13:49:34;30.20;;;17.33;;
29938;SDS011;16799;50.844;5.304;2023-03-03T13:52:08;39.73;;;17.33;;
29938;SDS011;16799;50.844;5.304;2023-03-03T13:57:47;28.47;;;16.10;;
29938;SDS011;16799;50.844;5.304;2023-03-03T14:05:48;39.20;;;17.17;;
29938;SDS011;16799;50.844;5.304;2023-03-03T14:11:28;28.33;;;15.87;;
29938;SDS011;16799;50.844;5.304;2023-03-03T14:13:32;29.83;;;13.90;;
29938;SDS011;16799;50.844;5.304;2023-03-03T14:16:04;33.03;;;14.93;;
29938;SDS011;16799;50.844;5.304;2023-03-03T14:19:04;33.93;;;16.03;;
29938;SDS011;16799;50.844;5.304;2023-03-03T14:21:37;36.17;;;15.47;;
29938;SDS011;16799;50.844;5.304;2023-03-03T14:24:14;27.53;;;15.30;;
29938;SDS011;16799;50.844;5.304;2023-03-03T14:26:50;31.80;;;14.90;;
29938;SDS011;16799;50.844;5.304;2023-03-03T14:31:55;29.87;;;15.97;;
29938;SDS011;16799;50.844;5.304;2023-03-03T14:42:38;38.30;;;16.60;;
29938;SDS011;16799;50.844;5.304;2023-03-03T14:45:29;23.90;;;13.07;;
29938;SDS011;16799;50.844;5.304;2023-03-03T14:47:58;30.13;;;15.53;;
29938;SDS011;16799;50.844;5.304;2023-03-03T14:50:37;29.30;;;15.07;;
29938;SDS011;16799;50.844;5.304;2023-03-03T14:53:10;34.87;;;15.33;;
29938;SDS011;16799;50.844;5.304;2023-03-03T14:55:51;36.90;;;16.20;;
29938;SDS011;16799;50.844;5.304;2023-03-03T15:04:01;26.50;;;13.37;;
29938;SDS011;16799;50.844;5.304;2023-03-03T15:06:55;27.00;;;15.13;;
29938;SDS011;16799;50.844;5.304;2023-03-03T15:09:31;29.80;;;14.23;;
29938;SDS011;16799;50.844;5.304;2023-03-03T15:15:12;26.10;;;14.30;;
29938;SDS011;16799;50.844;5.304;2023-03-03T15:17:52;29.43;;;15.43;;
29938;SDS011;16799;50.844;5.304;2023-03-03T15:20:34;26.60;;;14.77;;
29938;SDS011;16799;50.844;5.304;2023-03-03T15:31:15;21.47;;;12.37;;
29938;SDS011;16799;50.844;5.304;2023-03-03T15:34:00;30.10;;;14.27;;
29938;SDS011;16799;50.844;5.304;2023-03-03T15:36:46;35.40;;;13.87;;
29938;SDS011;16799;50.844;5.304;2023-03-03T15:39:23;35.77;;;15.13;;
29938;SDS011;16799;50.844;5.304;2023-03-03T15:41:57;30.07;;;14.70;;
29938;SDS011;16799;50.844;5.304;2023-03-03T15:47:37;27.27;;;13.40;;
29938;SDS011;16799;50.844;5.304;2023-03-03T15:50:11;27.50;;;14.70;;
29938;SDS011;16799;50.844;5.304;2023-03-03T15:55:44;32.97;;;16.07;;
29938;SDS011;16799;50.844;5.304;2023-03-03T16:04:10;33.37;;;14.17;;
29938;SDS011;16799;50.844;5.304;2023-03-03T16:06:48;26.30;;;13.20;;
29938;SDS011;16799;50.844;5.304;2023-03-03T16:21:01;33.20;;;15.53;;
29938;SDS011;16799;50.844;5.304;2023-03-03T16:23:47;30.70;;;13.97;;
29938;SDS011;16799;50.844;5.304;2023-03-03T16:31:48;30.63;;;14.97;;
29938;SDS011;16799;50.844;5.304;2023-03-03T16:40:13;30.00;;;15.60;;
29938;SDS011;16799;50.844;5.304;2023-03-03T16:42:42;35.33;;;17.83;;
29938;SDS011;16799;50.844;5.304;2023-03-03T17:12:22;32.77;;;15.20;;
29938;SDS011;16799;50.844;5.304;2023-03-03T17:23:16;33.77;;;16.30;;
29938;SDS011;16799;50.844;5.304;2023-03-03T17:39:18;29.13;;;15.77;;
29938;SDS011;16799;50.844;5.304;2023-03-03T17:42:00;38.70;;;16.03;;
29938;SDS011;16799;50.844;5.304;2023-03-03T17:47:10;36.93;;;14.53;;
29938;SDS011;16799;50.844;5.304;2023-03-03T17:50:02;32.83;;;15.20;;
29938;SDS011;16799;50.844;5.304;2023-03-03T17:55:35;36.83;;;15.67;;
29938;SDS011;16799;50.844;5.304;2023-03-03T18:17:52;42.00;;;;;
29938;SDS011;16799;50.844;5.304;2023-03-03T18:23:34;40.23;;;18.07;;
29938;SDS011;16799;50.844;5.304;2023-03-03T18:28:55;47.93;;;17.17;;
29938;SDS011;16799;50.844;5.304;2023-03-03T18:31:59;37.90;;;15.83;;
29938;SDS011;16799;50.844;5.304;2023-03-03T18:39:48;33.03;;;15.00;;
29938;SDS011;16799;50.844;5.304;2023-03-03T18:42:41;34.33;;;14.90;;
29938;SDS011;16799;50.844;5.304;2023-03-03T18:50:51;38.60;;;17.53;;
29938;SDS011;16799;50.844;5.304;2023-03-03T19:06:28;47.07;;;19.20;;
29938;SDS011;16799;50.844;5.304;2023-03-03T19:08:57;53.23;;;19.63;;
29938;SDS011;16799;50.844;5.304;2023-03-03T19:14:50;43.90;;;19.20;;
29938;SDS011;16799;50.844;5.304;2023-03-03T19:16:53;46.53;;;17.80;;
29938;SDS011;16799;50.844;5.304;2023-03-03T19:19:24;38.60;;;18.07;;
29938;SDS011;16799;50.844;5.304;2023-03-03T19:25:01;31.30;;;16.27;;
29938;SDS011;16799;50.844;5.304;2023-03-03T19:27:38;44.07;;;19.07;;
29938;SDS011;16799;50.844;5.304;2023-03-03T19:30:15;32.97;;;17.23;;
29938;SDS011;16799;50.844;5.304;2023-03-03T19:35:39;42.60;;;17.10;;
29938;SDS011;16799;50.844;5.304;2023-03-03T20:00:41;44.50;;;20.17;;
29938;SDS011;16799;50.844;5.304;2023-03-03T20:05:55;34.97;;;20.07;;
29938;SDS011;16799;50.844;5.304;2023-03-03T20:20:04;45.80;;;19.67;;
29938;SDS011;16799;50.844;5.304;2023-03-03T20:27:58;46.63;;;20.30;;
29938;SDS011;16799;50.844;5.304;2023-03-03T20:49:13;53.80;;;23.80;;
29938;SDS011;16799;50.844;5.304;2023-03-03T20:51:50;39.07;;;21.47;;
29938;SDS011;16799;50.844;5.304;2023-03-03T20:57:26;42.83;;;20.03;;
29938;SDS011;16799;50.844;5.304;2023-03-03T21:00:10;44.40;;;20.30;;
29938;SDS011;16799;50.844;5.304;2023-03-03T21:05:27;37.93;;;20.37;;
29938;SDS011;16799;50.844;5.304;2023-03-03T21:07:54;38.33;;;18.87;;
29938;SDS011;16799;50.844;5.304;2023-03-03T21:10:32;41.67;;;20.00;;
29938;SDS011;16799;50.844;5.304;2023-03-03T21:15:52;46.23;;;21.90;;
29938;SDS011;16799;50.844;5.304;2023-03-03T21:18:20;47.50;;;23.63;;
29938;SDS011;16799;50.844;5.304;2023-03-03T21:20:48;40.53;;;21.03;;
29938;SDS011;16799;50.844;5.304;2023-03-03T21:23:14;42.70;;;20.80;;
29938;SDS011;16799;50.844;5.304;2023-03-03T21:25:41;54.17;;;22.67;;
29938;SDS011;16799;50.844;5.304;2023-03-03T21:36:11;42.70;;;21.60;;
29938;SDS011;16799;50.844;5.304;2023-03-03T21:38:42;43.27;;;20.63;;
29938;SDS011;16799;50.844;5.304;2023-03-03T21:41:10;47.43;;;22.80;;
29938;SDS011;16799;50.844;5.304;2023-03-03T21:43:38;51.40;;;23.43;;
29938;SDS011;16799;50.844;5.304;2023-03-03T21:46:05;44.60;;;22.27;;
29938;SDS011;16799;50.844;5.304;2023-03-03T21:48:31;99.07;;;44.50;;
29938;SDS011;16799;50.844;5.304;2023-03-03T21:50:56;51.30;;;21.70;;
29938;SDS011;16799;50.844;5.304;2023-03-03T21:53:22;42.07;;;21.93;;
29938;SDS011;16799;50.844;5.304;2023-03-03T21:55:50;44.13;;;21.13;;
29938;SDS011;16799;50.844;5.304;2023-03-03T21:58:19;77.93;;;33.10;;
29938;SDS011;16799;50.844;5.304;2023-03-03T22:00:45;53.87;;;27.50;;
29938;SDS011;16799;50.844;5.304;2023-03-03T22:03:11;48.10;;;24.90;;